Terminal Aerodrome Forecast
Issued by NWS

Home | Current Version | Previous Version | Graphics & Text | Print | Product List | Glossary On
Versions: 1 2 3 4 5 6 7 8 9 10 11 12 13 14 15 16 17 18 19 20 21 22 23 24 25 26 27 28
000
FTUS43 KLOT 280753 AAA
TAFDPA
TAF AMD
KDPA 280753Z 2808/2906 VRB03KT P6SM VCTS BKN035 BKN070CB BKN250
     FM280945 VRB03KT P6SM SCT035 BKN070
     FM281100 VRB03KT 4SM BR FEW005 SCT250
     FM281500 07005KT P6SM SCT025 SCT250
     FM290300 08003KT P6SM SCT250=

USA.gov is the U.S. government's official web portal to all federal, state and local government web resources and services.